sensor_id;sensor_type;location;lat;lon;timestamp;temperature;humidity
42755;DHT22;28407;51.830;5.684;2023-11-18T00:01:43;7.50;89.10
42755;DHT22;28407;51.830;5.684;2023-11-18T00:03:44;7.50;89.10
42755;DHT22;28407;51.830;5.684;2023-11-18T00:05:45;7.50;89.10
42755;DHT22;28407;51.830;5.684;2023-11-18T00:07:45;7.40;89.10
42755;DHT22;28407;51.830;5.684;2023-11-18T00:09:46;7.50;89.20
42755;DHT22;28407;51.830;5.684;2023-11-18T00:11:46;7.50;89.20
42755;DHT22;28407;51.830;5.684;2023-11-18T00:13:47;7.40;89.20
42755;DHT22;28407;51.830;5.684;2023-11-18T00:15:48;7.40;89.30
42755;DHT22;28407;51.830;5.684;2023-11-18T00:17:48;7.40;89.30
42755;DHT22;28407;51.830;5.684;2023-11-18T00:19:49;7.30;89.30
42755;DHT22;28407;51.830;5.684;2023-11-18T00:21:50;7.40;89.40
42755;DHT22;28407;51.830;5.684;2023-11-18T00:23:50;7.30;90.00
42755;DHT22;28407;51.830;5.684;2023-11-18T00:25:51;7.30;89.40
42755;DHT22;28407;51.830;5.684;2023-11-18T00:27:53;7.30;89.40
42755;DHT22;28407;51.830;5.684;2023-11-18T00:29:54;7.30;89.40
42755;DHT22;28407;51.830;5.684;2023-11-18T00:31:55;7.30;89.40
42755;DHT22;28407;51.830;5.684;2023-11-18T00:33:55;7.30;89.40
42755;DHT22;28407;51.830;5.684;2023-11-18T00:35:56;7.30;89.40
42755;DHT22;28407;51.830;5.684;2023-11-18T00:37:57;7.20;90.00
42755;DHT22;28407;51.830;5.684;2023-11-18T00:39:58;7.30;90.00
42755;DHT22;28407;51.830;5.684;2023-11-18T00:41:59;7.30;89.50
42755;DHT22;28407;51.830;5.684;2023-11-18T00:44:00;7.20;89.40
42755;DHT22;28407;51.830;5.684;2023-11-18T00:46:01;7.20;89.40
42755;DHT22;28407;51.830;5.684;2023-11-18T00:48:03;7.20;89.40
42755;DHT22;28407;51.830;5.684;2023-11-18T00:50:05;7.20;89.40
42755;DHT22;28407;51.830;5.684;2023-11-18T00:52:09;7.20;89.40
42755;DHT22;28407;51.830;5.684;2023-11-18T00:54:10;7.20;89.40
42755;DHT22;28407;51.830;5.684;2023-11-18T00:56:15;7.20;89.40
42755;DHT22;28407;51.830;5.684;2023-11-18T00:58:18;7.20;89.40
42755;DHT22;28407;51.830;5.684;2023-11-18T01:00:18;7.20;89.40
42755;DHT22;28407;51.830;5.684;2023-11-18T01:02:22;7.20;89.40
42755;DHT22;28407;51.830;5.684;2023-11-18T01:04:23;7.10;89.40
42755;DHT22;28407;51.830;5.684;2023-11-18T01:06:23;7.10;89.40
42755;DHT22;28407;51.830;5.684;2023-11-18T01:08:24;7.10;89.50
42755;DHT22;28407;51.830;5.684;2023-11-18T01:10:25;7.10;89.40
42755;DHT22;28407;51.830;5.684;2023-11-18T01:12:26;7.10;89.50
42755;DHT22;28407;51.830;5.684;2023-11-18T01:14:26;7.10;89.50
42755;DHT22;28407;51.830;5.684;2023-11-18T01:16:27;7.10;90.00
42755;DHT22;28407;51.830;5.684;2023-11-18T01:18:28;7.10;89.50
42755;DHT22;28407;51.830;5.684;2023-11-18T01:20:29;7.10;89.50
42755;DHT22;28407;51.830;5.684;2023-11-18T01:22:30;7.00;89.40
42755;DHT22;28407;51.830;5.684;2023-11-18T01:24:30;7.00;89.40
42755;DHT22;28407;51.830;5.684;2023-11-18T01:26:31;7.00;89.50
42755;DHT22;28407;51.830;5.684;2023-11-18T01:28:34;7.00;89.50
42755;DHT22;28407;51.830;5.684;2023-11-18T01:30:39;7.00;89.50
42755;DHT22;28407;51.830;5.684;2023-11-18T01:32:40;7.00;89.50
42755;DHT22;28407;51.830;5.684;2023-11-18T01:34:40;7.00;89.50
42755;DHT22;28407;51.830;5.684;2023-11-18T01:36:43;7.00;89.40
42755;DHT22;28407;51.830;5.684;2023-11-18T01:38:44;7.00;89.50
42755;DHT22;28407;51.830;5.684;2023-11-18T01:40:45;7.00;89.60
42755;DHT22;28407;51.830;5.684;2023-11-18T01:42:46;7.00;89.60
42755;DHT22;28407;51.830;5.684;2023-11-18T01:44:46;7.00;89.60
42755;DHT22;28407;51.830;5.684;2023-11-18T01:46:47;7.00;89.60
42755;DHT22;28407;51.830;5.684;2023-11-18T01:48:48;6.90;89.50
42755;DHT22;28407;51.830;5.684;2023-11-18T01:50:49;7.00;89.60
42755;DHT22;28407;51.830;5.684;2023-11-18T01:52:51;7.00;89.50
42755;DHT22;28407;51.830;5.684;2023-11-18T01:54:54;7.00;89.50
42755;DHT22;28407;51.830;5.684;2023-11-18T01:56:55;7.00;89.50
42755;DHT22;28407;51.830;5.684;2023-11-18T01:58:56;7.00;89.50
42755;DHT22;28407;51.830;5.684;2023-11-18T02:00:59;7.00;89.50
42755;DHT22;28407;51.830;5.684;2023-11-18T02:03:00;7.00;89.40
42755;DHT22;28407;51.830;5.684;2023-11-18T02:05:00;7.00;89.40
42755;DHT22;28407;51.830;5.684;2023-11-18T02:07:06;7.00;89.40
42755;DHT22;28407;51.830;5.684;2023-11-18T02:09:09;7.00;89.40
42755;DHT22;28407;51.830;5.684;2023-11-18T02:11:33;7.00;89.40
42755;DHT22;28407;51.830;5.684;2023-11-18T02:13:43;7.00;89.50
42755;DHT22;28407;51.830;5.684;2023-11-18T02:15:48;7.00;89.50
42755;DHT22;28407;51.830;5.684;2023-11-18T02:17:52;7.00;89.50
42755;DHT22;28407;51.830;5.684;2023-11-18T02:19:56;7.10;89.50
42755;DHT22;28407;51.830;5.684;2023-11-18T02:22:00;7.10;89.50
42755;DHT22;28407;51.830;5.684;2023-11-18T02:24:01;7.10;89.50
42755;DHT22;28407;51.830;5.684;2023-11-18T02:26:02;7.00;90.00
42755;DHT22;28407;51.830;5.684;2023-11-18T02:28:02;7.10;89.20
42755;DHT22;28407;51.830;5.684;2023-11-18T02:30:04;7.10;89.50
42755;DHT22;28407;51.830;5.684;2023-11-18T02:34:20;7.10;89.50
42755;DHT22;28407;51.830;5.684;2023-11-18T02:36:26;7.10;89.50
42755;DHT22;28407;51.830;5.684;2023-11-18T02:38:41;7.10;89.60
42755;DHT22;28407;51.830;5.684;2023-11-18T02:40:46;7.10;89.50
42755;DHT22;28407;51.830;5.684;2023-11-18T02:42:50;7.10;89.50
42755;DHT22;28407;51.830;5.684;2023-11-18T02:44:53;7.10;89.60
42755;DHT22;28407;51.830;5.684;2023-11-18T02:47:00;7.10;89.60
42755;DHT22;28407;51.830;5.684;2023-11-18T02:49:00;7.10;89.60
42755;DHT22;28407;51.830;5.684;2023-11-18T02:51:01;7.10;89.60
42755;DHT22;28407;51.830;5.684;2023-11-18T02:53:02;7.10;89.70
42755;DHT22;28407;51.830;5.684;2023-11-18T02:55:07;7.10;89.70
42755;DHT22;28407;51.830;5.684;2023-11-18T02:57:08;7.10;89.70
42755;DHT22;28407;51.830;5.684;2023-11-18T02:59:09;7.10;89.70
42755;DHT22;28407;51.830;5.684;2023-11-18T03:01:11;7.10;89.60
42755;DHT22;28407;51.830;5.684;2023-11-18T03:03:12;7.10;89.70
42755;DHT22;28407;51.830;5.684;2023-11-18T03:05:12;7.10;89.60
42755;DHT22;28407;51.830;5.684;2023-11-18T03:07:13;7.10;89.60
42755;DHT22;28407;51.830;5.684;2023-11-18T03:09:14;7.10;89.60
42755;DHT22;28407;51.830;5.684;2023-11-18T03:11:15;7.10;89.70
42755;DHT22;28407;51.830;5.684;2023-11-18T03:13:16;7.10;89.70
42755;DHT22;28407;51.830;5.684;2023-11-18T03:15:17;7.10;89.70
42755;DHT22;28407;51.830;5.684;2023-11-18T03:17:18;7.10;89.70
42755;DHT22;28407;51.830;5.684;2023-11-18T03:19:20;7.10;89.70
42755;DHT22;28407;51.830;5.684;2023-11-18T03:21:21;7.10;89.70
42755;DHT22;28407;51.830;5.684;2023-11-18T03:23:24;7.10;89.70
42755;DHT22;28407;51.830;5.684;2023-11-18T03:25:28;7.10;89.70
42755;DHT22;28407;51.830;5.684;2023-11-18T03:27:29;7.10;89.80
42755;DHT22;28407;51.830;5.684;2023-11-18T03:29:29;7.10;89.80
42755;DHT22;28407;51.830;5.684;2023-11-18T03:31:30;7.10;89.80
42755;DHT22;28407;51.830;5.684;2023-11-18T03:33:31;7.10;89.80
42755;DHT22;28407;51.830;5.684;2023-11-18T03:35:32;7.10;89.80
42755;DHT22;28407;51.830;5.684;2023-11-18T03:37:33;7.10;89.80
42755;DHT22;28407;51.830;5.684;2023-11-18T03:39:33;7.10;89.80
42755;DHT22;28407;51.830;5.684;2023-11-18T03:41:34;7.20;89.80
42755;DHT22;28407;51.830;5.684;2023-11-18T03:43:35;7.10;89.80
42755;DHT22;28407;51.830;5.684;2023-11-18T03:45:35;7.20;89.80
42755;DHT22;28407;51.830;5.684;2023-11-18T03:47:38;7.10;89.80
42755;DHT22;28407;51.830;5.684;2023-11-18T03:49:39;7.10;89.80
42755;DHT22;28407;51.830;5.684;2023-11-18T03:51:40;7.10;89.80
42755;DHT22;28407;51.830;5.684;2023-11-18T03:53:44;7.10;90.20
42755;DHT22;28407;51.830;5.684;2023-11-18T03:55:44;7.20;89.90
42755;DHT22;28407;51.830;5.684;2023-11-18T03:57:45;7.20;89.90
42755;DHT22;28407;51.830;5.684;2023-11-18T03:59:46;7.20;89.90
42755;DHT22;28407;51.830;5.684;2023-11-18T04:01:46;7.10;89.90
42755;DHT22;28407;51.830;5.684;2023-11-18T04:03:49;7.10;90.20
42755;DHT22;28407;51.830;5.684;2023-11-18T04:05:51;7.10;89.90
42755;DHT22;28407;51.830;5.684;2023-11-18T04:07:51;7.10;89.90
42755;DHT22;28407;51.830;5.684;2023-11-18T04:09:52;7.10;89.90
42755;DHT22;28407;51.830;5.684;2023-11-18T04:11:53;7.10;89.90
42755;DHT22;28407;51.830;5.684;2023-11-18T04:13:53;7.10;89.90
42755;DHT22;28407;51.830;5.684;2023-11-18T04:15:55;7.10;89.90
42755;DHT22;28407;51.830;5.684;2023-11-18T04:17:55;7.10;90.00
42755;DHT22;28407;51.830;5.684;2023-11-18T04:19:56;7.10;90.00
42755;DHT22;28407;51.830;5.684;2023-11-18T04:21:57;7.10;90.00
42755;DHT22;28407;51.830;5.684;2023-11-18T04:23:57;7.10;90.00
42755;DHT22;28407;51.830;5.684;2023-11-18T04:25:58;7.10;90.00
42755;DHT22;28407;51.830;5.684;2023-11-18T04:27:58;7.10;90.00
42755;DHT22;28407;51.830;5.684;2023-11-18T04:30:00;7.10;90.00
42755;DHT22;28407;51.830;5.684;2023-11-18T04:32:00;7.10;90.30
42755;DHT22;28407;51.830;5.684;2023-11-18T04:34:02;7.10;90.00
42755;DHT22;28407;51.830;5.684;2023-11-18T04:36:03;7.10;90.00
42755;DHT22;28407;51.830;5.684;2023-11-18T04:38:05;7.10;90.10
42755;DHT22;28407;51.830;5.684;2023-11-18T04:40:06;7.10;90.10
42755;DHT22;28407;51.830;5.684;2023-11-18T04:42:14;7.10;90.10
42755;DHT22;28407;51.830;5.684;2023-11-18T04:44:16;7.10;90.10
42755;DHT22;28407;51.830;5.684;2023-11-18T04:46:16;7.10;90.10
42755;DHT22;28407;51.830;5.684;2023-11-18T04:48:17;7.10;90.10
42755;DHT22;28407;51.830;5.684;2023-11-18T04:50:19;7.10;90.10
42755;DHT22;28407;51.830;5.684;2023-11-18T04:52:21;7.10;90.10
42755;DHT22;28407;51.830;5.684;2023-11-18T04:54:21;7.10;90.10
42755;DHT22;28407;51.830;5.684;2023-11-18T04:56:22;7.10;90.10
42755;DHT22;28407;51.830;5.684;2023-11-18T04:58:22;7.10;90.10
42755;DHT22;28407;51.830;5.684;2023-11-18T05:00:23;7.10;90.10
42755;DHT22;28407;51.830;5.684;2023-11-18T05:02:25;7.10;90.10
42755;DHT22;28407;51.830;5.684;2023-11-18T05:04:25;7.10;90.10
42755;DHT22;28407;51.830;5.684;2023-11-18T05:06:26;7.10;90.20
42755;DHT22;28407;51.830;5.684;2023-11-18T05:08:27;7.10;90.20
42755;DHT22;28407;51.830;5.684;2023-11-18T05:10:28;7.10;90.20
42755;DHT22;28407;51.830;5.684;2023-11-18T05:12:28;7.10;90.20
42755;DHT22;28407;51.830;5.684;2023-11-18T05:14:29;7.10;90.20
42755;DHT22;28407;51.830;5.684;2023-11-18T05:16:30;7.10;90.20
42755;DHT22;28407;51.830;5.684;2023-11-18T05:18:31;7.10;90.20
42755;DHT22;28407;51.830;5.684;2023-11-18T05:20:35;7.10;90.20
42755;DHT22;28407;51.830;5.684;2023-11-18T05:22:37;7.10;90.20
42755;DHT22;28407;51.830;5.684;2023-11-18T05:24:38;7.10;90.20
42755;DHT22;28407;51.830;5.684;2023-11-18T05:26:38;7.10;90.20
42755;DHT22;28407;51.830;5.684;2023-11-18T05:28:40;7.10;90.20
42755;DHT22;28407;51.830;5.684;2023-11-18T05:30:42;7.10;90.30
42755;DHT22;28407;51.830;5.684;2023-11-18T05:32:45;7.10;90.20
42755;DHT22;28407;51.830;5.684;2023-11-18T05:34:46;7.10;90.20
42755;DHT22;28407;51.830;5.684;2023-11-18T05:36:50;7.10;90.20
42755;DHT22;28407;51.830;5.684;2023-11-18T05:38:55;7.10;90.20
42755;DHT22;28407;51.830;5.684;2023-11-18T05:40:56;7.10;90.20
42755;DHT22;28407;51.830;5.684;2023-11-18T05:42:57;7.10;90.20
42755;DHT22;28407;51.830;5.684;2023-11-18T05:44:59;7.10;90.20
42755;DHT22;28407;51.830;5.684;2023-11-18T05:47:02;7.20;90.30
42755;DHT22;28407;51.830;5.684;2023-11-18T05:49:03;7.10;90.20
42755;DHT22;28407;51.830;5.684;2023-11-18T05:51:08;7.10;90.20
42755;DHT22;28407;51.830;5.684;2023-11-18T05:53:09;7.10;90.20
42755;DHT22;28407;51.830;5.684;2023-11-18T05:55:12;7.20;90.20
42755;DHT22;28407;51.830;5.684;2023-11-18T05:57:16;7.10;90.20
42755;DHT22;28407;51.830;5.684;2023-11-18T05:59:17;7.20;90.30
42755;DHT22;28407;51.830;5.684;2023-11-18T06:01:18;7.20;90.30
42755;DHT22;28407;51.830;5.684;2023-11-18T06:03:20;7.10;90.30
42755;DHT22;28407;51.830;5.684;2023-11-18T06:05:21;7.20;90.30
42755;DHT22;28407;51.830;5.684;2023-11-18T06:07:23;7.20;90.30
42755;DHT22;28407;51.830;5.684;2023-11-18T06:09:24;7.20;90.30
42755;DHT22;28407;51.830;5.684;2023-11-18T06:11:26;7.20;90.30
42755;DHT22;28407;51.830;5.684;2023-11-18T06:13:28;7.10;90.30
42755;DHT22;28407;51.830;5.684;2023-11-18T06:15:29;7.20;90.40
42755;DHT22;28407;51.830;5.684;2023-11-18T06:17:30;7.20;90.40
42755;DHT22;28407;51.830;5.684;2023-11-18T06:19:30;7.20;90.40
42755;DHT22;28407;51.830;5.684;2023-11-18T06:21:31;7.20;90.40
42755;DHT22;28407;51.830;5.684;2023-11-18T06:23:32;7.20;90.40
42755;DHT22;28407;51.830;5.684;2023-11-18T06:25:33;7.20;90.40
42755;DHT22;28407;51.830;5.684;2023-11-18T06:27:35;7.20;90.40
42755;DHT22;28407;51.830;5.684;2023-11-18T06:29:35;7.10;90.40
42755;DHT22;28407;51.830;5.684;2023-11-18T06:31:36;7.10;90.40
42755;DHT22;28407;51.830;5.684;2023-11-18T06:33:44;7.20;90.40
42755;DHT22;28407;51.830;5.684;2023-11-18T06:35:45;7.20;90.50
42755;DHT22;28407;51.830;5.684;2023-11-18T06:37:46;7.20;90.50
42755;DHT22;28407;51.830;5.684;2023-11-18T06:39:47;7.20;90.40
42755;DHT22;28407;51.830;5.684;2023-11-18T06:41:49;7.20;90.50
42755;DHT22;28407;51.830;5.684;2023-11-18T06:43:51;7.20;90.50
42755;DHT22;28407;51.830;5.684;2023-11-18T06:45:52;7.20;90.50
42755;DHT22;28407;51.830;5.684;2023-11-18T06:47:52;7.20;90.50
42755;DHT22;28407;51.830;5.684;2023-11-18T06:49:54;7.20;90.50
42755;DHT22;28407;51.830;5.684;2023-11-18T06:51:55;7.20;90.50
42755;DHT22;28407;51.830;5.684;2023-11-18T06:53:57;7.20;90.50
42755;DHT22;28407;51.830;5.684;2023-11-18T06:55:58;7.20;90.50
42755;DHT22;28407;51.830;5.684;2023-11-18T06:57:58;7.20;90.50
42755;DHT22;28407;51.830;5.684;2023-11-18T06:59:59;7.20;90.50
42755;DHT22;28407;51.830;5.684;2023-11-18T07:01:59;7.20;90.50
42755;DHT22;28407;51.830;5.684;2023-11-18T07:04:00;7.20;90.50
42755;DHT22;28407;51.830;5.684;2023-11-18T07:06:01;7.20;90.50
42755;DHT22;28407;51.830;5.684;2023-11-18T07:08:02;7.20;90.50
42755;DHT22;28407;51.830;5.684;2023-11-18T07:10:04;7.20;90.50
42755;DHT22;28407;51.830;5.684;2023-11-18T07:12:06;7.20;90.50
42755;DHT22;28407;51.830;5.684;2023-11-18T07:14:10;7.20;90.50
42755;DHT22;28407;51.830;5.684;2023-11-18T07:16:11;7.30;90.60
42755;DHT22;28407;51.830;5.684;2023-11-18T07:18:12;7.20;90.50
42755;DHT22;28407;51.830;5.684;2023-11-18T07:20:13;7.20;90.50
42755;DHT22;28407;51.830;5.684;2023-11-18T07:22:13;7.20;90.50
42755;DHT22;28407;51.830;5.684;2023-11-18T07:24:15;7.20;90.60
42755;DHT22;28407;51.830;5.684;2023-11-18T07:26:17;7.30;90.60
42755;DHT22;28407;51.830;5.684;2023-11-18T07:28:17;7.30;90.60
42755;DHT22;28407;51.830;5.684;2023-11-18T07:30:18;7.30;90.50
42755;DHT22;28407;51.830;5.684;2023-11-18T07:32:20;7.20;90.50
42755;DHT22;28407;51.830;5.684;2023-11-18T07:34:21;7.30;90.50
42755;DHT22;28407;51.830;5.684;2023-11-18T07:36:24;7.30;90.60
42755;DHT22;28407;51.830;5.684;2023-11-18T07:38:24;7.30;90.60
42755;DHT22;28407;51.830;5.684;2023-11-18T07:40:26;7.30;90.60
42755;DHT22;28407;51.830;5.684;2023-11-18T07:42:28;7.30;90.60
42755;DHT22;28407;51.830;5.684;2023-11-18T07:44:29;7.30;90.60
42755;DHT22;28407;51.830;5.684;2023-11-18T07:46:29;7.40;90.60
42755;DHT22;28407;51.830;5.684;2023-11-18T07:48:31;7.40;90.60
42755;DHT22;28407;51.830;5.684;2023-11-18T07:50:41;7.40;90.60
42755;DHT22;28407;51.830;5.684;2023-11-18T07:52:42;7.30;90.60
42755;DHT22;28407;51.830;5.684;2023-11-18T07:54:42;7.40;90.60
42755;DHT22;28407;51.830;5.684;2023-11-18T07:56:43;7.40;90.60
42755;DHT22;28407;51.830;5.684;2023-11-18T07:58:46;7.40;90.60
42755;DHT22;28407;51.830;5.684;2023-11-18T08:00:47;7.40;90.60
42755;DHT22;28407;51.830;5.684;2023-11-18T08:02:49;7.40;90.60
42755;DHT22;28407;51.830;5.684;2023-11-18T08:04:54;7.40;90.60
42755;DHT22;28407;51.830;5.684;2023-11-18T08:06:56;7.40;90.60
42755;DHT22;28407;51.830;5.684;2023-11-18T08:08:57;7.40;90.60
42755;DHT22;28407;51.830;5.684;2023-11-18T08:10:58;7.50;90.60
42755;DHT22;28407;51.830;5.684;2023-11-18T08:12:59;7.50;90.60
42755;DHT22;28407;51.830;5.684;2023-11-18T08:15:00;7.50;90.60
42755;DHT22;28407;51.830;5.684;2023-11-18T08:17:01;7.50;90.60
42755;DHT22;28407;51.830;5.684;2023-11-18T08:19:02;7.50;90.60
42755;DHT22;28407;51.830;5.684;2023-11-18T08:21:03;7.50;90.60
42755;DHT22;28407;51.830;5.684;2023-11-18T08:23:07;7.50;90.60
42755;DHT22;28407;51.830;5.684;2023-11-18T08:25:08;7.50;90.60
42755;DHT22;28407;51.830;5.684;2023-11-18T08:27:08;7.50;90.60
42755;DHT22;28407;51.830;5.684;2023-11-18T08:29:10;7.50;90.60
42755;DHT22;28407;51.830;5.684;2023-11-18T08:31:13;7.50;90.60
42755;DHT22;28407;51.830;5.684;2023-11-18T08:33:18;7.50;90.60
42755;DHT22;28407;51.830;5.684;2023-11-18T08:35:19;7.50;90.60
42755;DHT22;28407;51.830;5.684;2023-11-18T08:37:21;7.50;90.60
42755;DHT22;28407;51.830;5.684;2023-11-18T08:39:22;7.50;90.60
42755;DHT22;28407;51.830;5.684;2023-11-18T08:41:26;7.50;90.60
42755;DHT22;28407;51.830;5.684;2023-11-18T08:43:26;7.50;90.60
42755;DHT22;28407;51.830;5.684;2023-11-18T08:45:29;7.50;90.60
42755;DHT22;28407;51.830;5.684;2023-11-18T08:47:29;7.50;90.70
42755;DHT22;28407;51.830;5.684;2023-11-18T08:49:32;7.50;90.60
42755;DHT22;28407;51.830;5.684;2023-11-18T08:51:34;7.50;90.70
42755;DHT22;28407;51.830;5.684;2023-11-18T08:53:37;7.50;90.60
42755;DHT22;28407;51.830;5.684;2023-11-18T08:55:41;7.50;90.70
42755;DHT22;28407;51.830;5.684;2023-11-18T08:57:51;7.50;90.70
42755;DHT22;28407;51.830;5.684;2023-11-18T09:00:04;7.50;90.70
42755;DHT22;28407;51.830;5.684;2023-11-18T09:02:18;7.50;90.70
42755;DHT22;28407;51.830;5.684;2023-11-18T09:04:23;7.60;90.70
42755;DHT22;28407;51.830;5.684;2023-11-18T09:06:24;7.60;90.70
42755;DHT22;28407;51.830;5.684;2023-11-18T09:08:33;7.60;90.70
42755;DHT22;28407;51.830;5.684;2023-11-18T09:10:38;7.60;90.60
42755;DHT22;28407;51.830;5.684;2023-11-18T09:12:41;7.60;90.60
42755;DHT22;28407;51.830;5.684;2023-11-18T09:14:45;7.60;90.60
42755;DHT22;28407;51.830;5.684;2023-11-18T09:16:48;7.60;90.60
42755;DHT22;28407;51.830;5.684;2023-11-18T09:18:49;7.70;90.60
42755;DHT22;28407;51.830;5.684;2023-11-18T09:20:51;7.60;90.60
42755;DHT22;28407;51.830;5.684;2023-11-18T09:22:54;7.70;90.60
42755;DHT22;28407;51.830;5.684;2023-11-18T09:24:56;7.70;90.60
42755;DHT22;28407;51.830;5.684;2023-11-18T09:26:56;7.70;90.60
42755;DHT22;28407;51.830;5.684;2023-11-18T09:28:57;7.70;90.60
42755;DHT22;28407;51.830;5.684;2023-11-18T09:30:58;7.70;90.60
42755;DHT22;28407;51.830;5.684;2023-11-18T09:33:01;7.70;90.60
42755;DHT22;28407;51.830;5.684;2023-11-18T09:35:03;7.70;90.60
42755;DHT22;28407;51.830;5.684;2023-11-18T09:37:09;7.70;90.60
42755;DHT22;28407;51.830;5.684;2023-11-18T09:39:10;7.70;90.60
42755;DHT22;28407;51.830;5.684;2023-11-18T09:41:29;7.70;90.60
42755;DHT22;28407;51.830;5.684;2023-11-18T09:43:30;7.70;90.60
42755;DHT22;28407;51.830;5.684;2023-11-18T09:45:44;7.70;90.60
42755;DHT22;28407;51.830;5.684;2023-11-18T09:47:46;7.80;90.60
42755;DHT22;28407;51.830;5.684;2023-11-18T09:49:49;7.80;90.60
42755;DHT22;28407;51.830;5.684;2023-11-18T09:51:57;7.80;90.60
42755;DHT22;28407;51.830;5.684;2023-11-18T09:54:05;7.70;90.60
42755;DHT22;28407;51.830;5.684;2023-11-18T09:56:11;7.80;90.60
42755;DHT22;28407;51.830;5.684;2023-11-18T09:58:19;7.80;90.60
42755;DHT22;28407;51.830;5.684;2023-11-18T10:00:26;7.80;90.60
42755;DHT22;28407;51.830;5.684;2023-11-18T10:02:32;7.80;90.60
42755;DHT22;28407;51.830;5.684;2023-11-18T10:04:33;7.70;90.60
42755;DHT22;28407;51.830;5.684;2023-11-18T10:06:38;7.80;90.70
42755;DHT22;28407;51.830;5.684;2023-11-18T10:08:41;7.80;90.70
42755;DHT22;28407;51.830;5.684;2023-11-18T10:10:46;7.80;90.70
42755;DHT22;28407;51.830;5.684;2023-11-18T10:12:48;7.80;90.70
42755;DHT22;28407;51.830;5.684;2023-11-18T10:14:58;7.80;90.70
42755;DHT22;28407;51.830;5.684;2023-11-18T10:16:59;7.90;90.70
42755;DHT22;28407;51.830;5.684;2023-11-18T10:19:05;7.90;90.70
42755;DHT22;28407;51.830;5.684;2023-11-18T10:21:09;7.90;90.70
42755;DHT22;28407;51.830;5.684;2023-11-18T10:23:13;7.90;90.70
42755;DHT22;28407;51.830;5.684;2023-11-18T10:25:25;7.90;90.70
42755;DHT22;28407;51.830;5.684;2023-11-18T10:27:27;7.90;90.70
42755;DHT22;28407;51.830;5.684;2023-11-18T10:29:28;7.90;90.70
42755;DHT22;28407;51.830;5.684;2023-11-18T10:31:29;7.90;90.70
42755;DHT22;28407;51.830;5.684;2023-11-18T10:33:39;7.90;90.70
42755;DHT22;28407;51.830;5.684;2023-11-18T10:35:52;7.90;90.60
42755;DHT22;28407;51.830;5.684;2023-11-18T10:37:55;8.00;90.70
42755;DHT22;28407;51.830;5.684;2023-11-18T10:39:57;7.90;90.70
42755;DHT22;28407;51.830;5.684;2023-11-18T10:42:01;8.00;90.70
42755;DHT22;28407;51.830;5.684;2023-11-18T10:44:08;8.00;90.70
42755;DHT22;28407;51.830;5.684;2023-11-18T10:46:15;8.00;90.70
42755;DHT22;28407;51.830;5.684;2023-11-18T10:48:16;8.00;90.70
42755;DHT22;28407;51.830;5.684;2023-11-18T10:50:20;8.00;90.70
42755;DHT22;28407;51.830;5.684;2023-11-18T10:52:23;8.00;90.70
42755;DHT22;28407;51.830;5.684;2023-11-18T10:54:24;8.00;90.70
42755;DHT22;28407;51.830;5.684;2023-11-18T10:56:27;8.10;90.80
42755;DHT22;28407;51.830;5.684;2023-11-18T10:58:35;8.10;90.80
42755;DHT22;28407;51.830;5.684;2023-11-18T11:00:49;8.10;90.80
42755;DHT22;28407;51.830;5.684;2023-11-18T11:02:58;8.10;90.80
42755;DHT22;28407;51.830;5.684;2023-11-18T11:04:58;8.10;90.80
42755;DHT22;28407;51.830;5.684;2023-11-18T11:06:59;8.10;90.80
42755;DHT22;28407;51.830;5.684;2023-11-18T11:09:01;8.10;90.80
42755;DHT22;28407;51.830;5.684;2023-11-18T11:11:11;8.20;90.80
42755;DHT22;28407;51.830;5.684;2023-11-18T11:13:17;8.20;91.10
42755;DHT22;28407;51.830;5.684;2023-11-18T11:15:29;8.20;90.90
42755;DHT22;28407;51.830;5.684;2023-11-18T11:17:30;8.20;90.90
42755;DHT22;28407;51.830;5.684;2023-11-18T11:22:04;8.20;90.90
42755;DHT22;28407;51.830;5.684;2023-11-18T11:24:11;8.30;90.90
42755;DHT22;28407;51.830;5.684;2023-11-18T11:28:42;8.30;90.90
42755;DHT22;28407;51.830;5.684;2023-11-18T11:31:12;8.30;90.90
42755;DHT22;28407;51.830;5.684;2023-11-18T11:33:22;8.30;91.00
42755;DHT22;28407;51.830;5.684;2023-11-18T11:35:31;8.30;91.00
42755;DHT22;28407;51.830;5.684;2023-11-18T11:37:34;8.30;91.00
42755;DHT22;28407;51.830;5.684;2023-11-18T11:39:37;8.30;91.00
42755;DHT22;28407;51.830;5.684;2023-11-18T11:41:38;8.30;91.00
42755;DHT22;28407;51.830;5.684;2023-11-18T11:43:39;8.30;91.00
42755;DHT22;28407;51.830;5.684;2023-11-18T11:45:41;8.30;91.00
42755;DHT22;28407;51.830;5.684;2023-11-18T11:47:43;8.30;91.00
42755;DHT22;28407;51.830;5.684;2023-11-18T11:49:58;8.30;91.00
42755;DHT22;28407;51.830;5.684;2023-11-18T11:52:09;8.40;91.10
42755;DHT22;28407;51.830;5.684;2023-11-18T11:54:23;8.30;91.10
42755;DHT22;28407;51.830;5.684;2023-11-18T11:56:40;8.30;91.10
42755;DHT22;28407;51.830;5.684;2023-11-18T11:58:42;8.40;91.20
42755;DHT22;28407;51.830;5.684;2023-11-18T12:00:44;8.30;91.10
42755;DHT22;28407;51.830;5.684;2023-11-18T12:02:49;8.40;91.20
42755;DHT22;28407;51.830;5.684;2023-11-18T12:04:51;8.40;91.20
42755;DHT22;28407;51.830;5.684;2023-11-18T12:06:54;8.40;91.20
42755;DHT22;28407;51.830;5.684;2023-11-18T12:08:57;8.40;91.20
42755;DHT22;28407;51.830;5.684;2023-11-18T12:10:59;8.40;91.20
42755;DHT22;28407;51.830;5.684;2023-11-18T12:13:10;8.40;91.20
42755;DHT22;28407;51.830;5.684;2023-11-18T12:15:49;8.40;91.30
42755;DHT22;28407;51.830;5.684;2023-11-18T12:20:37;8.50;91.20
42755;DHT22;28407;51.830;5.684;2023-11-18T12:23:03;8.50;91.30
42755;DHT22;28407;51.830;5.684;2023-11-18T12:29:44;8.50;91.30
42755;DHT22;28407;51.830;5.684;2023-11-18T12:31:45;8.50;91.30
42755;DHT22;28407;51.830;5.684;2023-11-18T12:41:36;8.60;91.40
42755;DHT22;28407;51.830;5.684;2023-11-18T12:48:52;8.60;91.40
42755;DHT22;28407;51.830;5.684;2023-11-18T12:50:57;8.60;91.40
42755;DHT22;28407;51.830;5.684;2023-11-18T12:52:58;8.60;91.70
42755;DHT22;28407;51.830;5.684;2023-11-18T12:54:58;8.60;91.50
42755;DHT22;28407;51.830;5.684;2023-11-18T12:57:01;8.60;91.50
42755;DHT22;28407;51.830;5.684;2023-11-18T12:59:02;8.60;91.50
42755;DHT22;28407;51.830;5.684;2023-11-18T13:01:06;8.60;91.60
42755;DHT22;28407;51.830;5.684;2023-11-18T13:03:07;8.60;91.60
42755;DHT22;28407;51.830;5.684;2023-11-18T13:05:11;8.60;91.60
42755;DHT22;28407;51.830;5.684;2023-11-18T13:07:15;8.60;91.60
42755;DHT22;28407;51.830;5.684;2023-11-18T13:09:16;8.60;91.60
42755;DHT22;28407;51.830;5.684;2023-11-18T13:11:25;8.60;91.60
42755;DHT22;28407;51.830;5.684;2023-11-18T13:13:26;8.60;91.60
42755;DHT22;28407;51.830;5.684;2023-11-18T13:15:27;8.70;91.70
42755;DHT22;28407;51.830;5.684;2023-11-18T13:17:29;8.70;91.70
42755;DHT22;28407;51.830;5.684;2023-11-18T13:19:30;8.70;91.70
42755;DHT22;28407;51.830;5.684;2023-11-18T13:21:33;8.70;91.70
42755;DHT22;28407;51.830;5.684;2023-11-18T13:23:37;8.70;91.70
42755;DHT22;28407;51.830;5.684;2023-11-18T13:25:37;8.70;91.80
42755;DHT22;28407;51.830;5.684;2023-11-18T13:27:39;8.70;91.80
42755;DHT22;28407;51.830;5.684;2023-11-18T13:29:44;8.70;91.80
42755;DHT22;28407;51.830;5.684;2023-11-18T13:31:51;8.70;91.80
42755;DHT22;28407;51.830;5.684;2023-11-18T13:33:51;8.70;91.80
42755;DHT22;28407;51.830;5.684;2023-11-18T13:35:53;8.70;91.80